Time;durP1;ratioP1;P1;durP2;ratioP2;P2;SDS_P1;SDS_P2;PMS_P1;PMS_P2;Temp;Humidity;BMP_temperature;BMP_pressure;BME280_temperature;BME280_humidity;BME280_pressure;Samples;Min_cycle;Max_cycle;Signal;HPM_P1;HPM_P2
2021/05/23 00:00:27;;;;;;;9.77;6.03;;;10.40;99.90;;;;;;5068205;28;20020;-91
2021/05/23 00:03:01;;;;;;;8.60;6.13;;;10.30;99.90;;;;;;5068249;28;20058;-90
2021/05/23 00:05:38;;;;;;;10.93;6.35;;;10.30;99.90;;;;;;5067764;28;20037;-90
2021/05/23 00:08:27;;;;;;;10.75;7.32;;;10.20;99.90;;;;;;5067976;28;20044;-91
2021/05/23 00:11:08;;;;;;;12.40;7.32;;;10.10;99.90;;;;;;5051818;28;20063;-90
2021/05/23 00:13:54;;;;;;;8.95;6.68;;;10.10;99.90;;;;;;5064557;28;20098;-90
2021/05/23 00:16:23;;;;;;;9.10;5.90;;;10.10;99.90;;;;;;5067351;28;20032;-91
2021/05/23 00:18:54;;;;;;;7.05;5.30;;;10.10;99.90;;;;;;5068805;28;20025;-91
2021/05/23 00:21:26;;;;;;;10.13;6.47;;;10.10;99.90;;;;;;5036576;28;20037;-91
2021/05/23 00:23:53;;;;;;;12.07;6.40;;;10.10;99.90;;;;;;5040727;28;20049;-91
2021/05/23 00:26:19;;;;;;;9.05;6.57;;;10.10;99.90;;;;;;5067806;28;20094;-91
2021/05/23 00:28:49;;;;;;;11.20;7.57;;;10.00;99.90;;;;;;5051111;28;20036;-91
2021/05/23 00:31:15;;;;;;;9.52;6.53;;;10.00;99.90;;;;;;5068270;28;20032;-91
2021/05/23 00:33:42;;;;;;;10.32;6.72;;;10.00;99.90;;;;;;5031676;28;20029;-90
2021/05/23 00:36:09;;;;;;;7.63;5.65;;;10.00;99.90;;;;;;5047888;28;20056;-90
2021/05/23 00:38:35;;;;;;;10.25;6.85;;;10.00;99.90;;;;;;5028702;28;20029;-89
2021/05/23 00:41:02;;;;;;;10.18;6.85;;;10.00;99.90;;;;;;5055191;28;20070;-90
2021/05/23 00:43:29;;;;;;;8.02;6.03;;;10.00;99.90;;;;;;5070299;28;20469;-89
2021/05/23 00:45:57;;;;;;;8.90;5.90;;;10.00;99.90;;;;;;5069607;28;20097;-89
2021/05/23 00:48:24;;;;;;;9.25;6.07;;;10.00;99.90;;;;;;5062161;28;20025;-90
2021/05/23 00:50:52;;;;;;;7.82;5.35;;;10.00;99.90;;;;;;5037457;28;20272;-90
2021/05/23 00:53:21;;;;;;;11.35;6.40;;;10.00;99.90;;;;;;5071074;28;20121;-90
2021/05/23 00:55:49;;;;;;;9.15;6.15;;;10.10;99.90;;;;;;5054606;28;20039;-91
2021/05/23 00:58:18;;;;;;;10.13;6.25;;;10.10;99.90;;;;;;5072048;28;20029;-90
2021/05/23 01:00:56;;;;;;;7.00;5.13;;;10.10;99.90;;;;;;5038198;28;20021;-91
2021/05/23 01:03:31;;;;;;;9.73;6.47;;;10.10;99.90;;;;;;5065012;28;20021;-89
2021/05/23 01:06:00;;;;;;;10.18;6.35;;;10.10;99.90;;;;;;5067748;28;20032;-89
2021/05/23 01:08:29;;;;;;;11.23;6.70;;;10.00;99.90;;;;;;5058190;28;20049;-90
2021/05/23 01:11:15;;;;;;;11.35;6.15;;;10.10;99.90;;;;;;5070316;28;20029;-90
2021/05/23 01:13:58;;;;;;;7.40;5.07;;;10.10;99.90;;;;;;5066858;28;20028;-90
2021/05/23 01:16:39;;;;;;;9.10;5.28;;;10.10;99.90;;;;;;5058808;28;20484;-90
2021/05/23 01:19:23;;;;;;;9.05;4.95;;;10.00;99.90;;;;;;5060664;28;20029;-89
2021/05/23 01:22:00;;;;;;;8.40;5.53;;;10.00;99.90;;;;;;5047868;28;20029;-90
2021/05/23 01:25:10;;;;;;;7.82;5.40;;;10.00;99.90;;;;;;5056031;28;20028;-90
2021/05/23 01:27:37;;;;;;;7.80;4.75;;;10.00;99.90;;;;;;5064773;28;20465;-90
2021/05/23 01:30:12;;;;;;;7.80;4.40;;;10.00;99.90;;;;;;5061563;28;20430;-91
2021/05/23 01:32:43;;;;;;;9.20;5.00;;;10.00;99.90;;;;;;5071005;28;20032;-92
2021/05/23 01:35:16;;;;;;;8.73;4.95;;;10.00;99.90;;;;;;5060904;28;20067;-91
2021/05/23 01:37:47;;;;;;;5.78;4.13;;;10.00;99.90;;;;;;5064541;28;20049;-90
2021/05/23 01:40:14;;;;;;;7.40;5.10;;;10.00;99.90;;;;;;5053511;28;20028;-90
2021/05/23 01:42:41;;;;;;;7.82;4.65;;;10.00;99.90;;;;;;5056750;28;20037;-90
2021/05/23 01:45:08;;;;;;;8.35;4.93;;;10.00;99.90;;;;;;5074204;28;20035;-91
2021/05/23 01:47:34;;;;;;;8.40;4.82;;;10.00;99.90;;;;;;5047207;28;20039;-92
2021/05/23 01:50:00;;;;;;;8.23;5.07;;;10.00;99.90;;;;;;5050697;28;20119;-91
2021/05/23 01:52:27;;;;;;;8.95;5.28;;;9.90;99.90;;;;;;5041075;28;20120;-91
2021/05/23 01:54:53;;;;;;;7.68;4.63;;;9.90;99.90;;;;;;5058274;28;20082;-91
2021/05/23 01:57:20;;;;;;;9.90;5.03;;;9.80;99.90;;;;;;5067127;28;20025;-90
2021/05/23 01:59:46;;;;;;;7.75;4.28;;;9.80;99.90;;;;;;5047848;28;20094;-90
2021/05/23 02:02:12;;;;;;;6.88;4.40;;;9.80;99.90;;;;;;5059881;28;20028;-91
2021/05/23 02:04:40;;;;;;;7.28;4.65;;;9.70;99.90;;;;;;5071053;28;20028;-90
2021/05/23 02:07:07;;;;;;;6.88;4.68;;;9.70;99.90;;;;;;5042945;28;20071;-91
2021/05/23 02:09:35;;;;;;;6.53;4.55;;;9.60;99.90;;;;;;5064868;28;20044;-90
2021/05/23 02:12:01;;;;;;;8.60;4.45;;;9.60;99.90;;;;;;5067044;28;20111;-91
2021/05/23 02:14:28;;;;;;;7.00;4.95;;;9.60;99.90;;;;;;5057168;28;20117;-91
2021/05/23 02:16:57;;;;;;;5.88;4.80;;;9.60;99.90;;;;;;5070159;28;20048;-91
2021/05/23 02:19:23;;;;;;;8.85;5.25;;;9.60;99.90;;;;;;5061659;28;20361;-91
2021/05/23 02:21:51;;;;;;;7.47;5.72;;;9.60;99.90;;;;;;5045650;28;20036;-90
2021/05/23 02:24:17;;;;;;;8.35;5.75;;;9.60;99.90;;;;;;5052972;28;20078;-91
2021/05/23 02:26:43;;;;;;;9.15;6.57;;;9.70;99.90;;;;;;5057028;28;20116;-91
2021/05/23 02:29:11;;;;;;;9.20;6.95;;;9.70;99.90;;;;;;5066736;28;20389;-90
2021/05/23 02:31:38;;;;;;;11.30;7.22;;;9.70;99.90;;;;;;5063650;28;20089;-91
2021/05/23 02:34:04;;;;;;;10.57;7.38;;;9.70;99.90;;;;;;5061508;28;20025;-89
2021/05/23 02:36:30;;;;;;;10.85;8.05;;;9.70;99.90;;;;;;5069719;28;20392;-89
2021/05/23 02:38:57;;;;;;;10.15;7.90;;;9.70;99.90;;;;;;5024732;28;20170;-89
2021/05/23 02:41:23;;;;;;;12.27;7.47;;;9.80;99.90;;;;;;5073925;28;20078;-89
2021/05/23 02:43:49;;;;;;;10.30;7.32;;;9.80;99.90;;;;;;5045510;28;20029;-89
2021/05/23 02:46:17;;;;;;;12.73;9.68;;;9.80;99.90;;;;;;5068403;28;20562;-89
2021/05/23 02:48:43;;;;;;;14.43;9.68;;;9.80;99.90;;;;;;5056803;28;20178;-91
2021/05/23 02:51:11;;;;;;;12.15;9.15;;;9.80;99.90;;;;;;5068654;28;20017;-90
2021/05/23 02:53:39;;;;;;;11.93;9.15;;;9.80;99.90;;;;;;5063166;28;20106;-89
2021/05/23 02:56:06;;;;;;;11.18;8.75;;;9.70;99.90;;;;;;5073498;28;20024;-89
2021/05/23 02:58:32;;;;;;;10.43;7.68;;;9.70;99.90;;;;;;5054823;28;20428;-89
2021/05/23 03:01:03;;;;;;;10.48;8.00;;;9.70;99.90;;;;;;5070024;28;20364;-90
2021/05/23 03:03:30;;;;;;;10.90;8.10;;;9.70;99.90;;;;;;5061605;28;20373;-91
2021/05/23 03:05:57;;;;;;;10.90;8.23;;;9.60;99.90;;;;;;5055203;28;20044;-89
2021/05/23 03:08:26;;;;;;;11.52;7.60;;;9.60;99.90;;;;;;5035962;28;20060;-90
2021/05/23 03:10:55;;;;;;;11.38;8.55;;;9.60;99.90;;;;;;5057524;28;20020;-90
2021/05/23 03:13:21;;;;;;;11.30;8.63;;;9.60;99.90;;;;;;5048616;28;20037;-89
2021/05/23 03:15:50;;;;;;;11.80;8.18;;;9.60;99.90;;;;;;5063993;28;20028;-90
2021/05/23 03:18:18;;;;;;;10.15;7.43;;;9.50;99.90;;;;;;5057812;28;20037;-89
2021/05/23 03:20:45;;;;;;;10.75;8.18;;;9.50;99.90;;;;;;5055418;28;20127;-91
2021/05/23 03:23:11;;;;;;;12.55;8.45;;;9.60;99.90;;;;;;5036238;28;20120;-89
2021/05/23 03:25:48;;;;;;;10.00;8.02;;;9.60;99.90;;;;;;5042573;28;20061;-89
2021/05/23 03:28:15;;;;;;;11.30;8.80;;;9.60;99.90;;;;;;5067416;28;20064;-89
2021/05/23 03:30:50;;;;;;;13.88;9.18;;;9.60;99.90;;;;;;5039827;28;20504;-90
2021/05/23 03:33:17;;;;;;;11.98;8.80;;;9.60;99.90;;;;;;5036476;28;20389;-90
2021/05/23 03:35:44;;;;;;;13.15;9.30;;;9.60;99.90;;;;;;5063760;28;20029;-91
2021/05/23 03:38:11;;;;;;;12.07;8.57;;;9.70;99.90;;;;;;5075272;28;20056;-89
2021/05/23 03:40:39;;;;;;;10.90;8.45;;;9.70;99.90;;;;;;5040281;28;20033;-91
2021/05/23 03:43:09;;;;;;;12.38;9.43;;;9.70;99.90;;;;;;5049343;28;20040;-89
2021/05/23 03:45:36;;;;;;;11.15;8.70;;;9.70;99.90;;;;;;5062194;28;20025;-89
2021/05/23 03:48:03;;;;;;;10.93;8.30;;;9.70;99.90;;;;;;5059592;28;20029;-90
2021/05/23 03:50:29;;;;;;;11.20;8.73;;;9.70;99.90;;;;;;5069240;28;20025;-90
2021/05/23 03:52:57;;;;;;;11.77;8.77;;;9.70;99.90;;;;;;5039877;28;20032;-90
2021/05/23 03:55:28;;;;;;;9.90;8.45;;;9.80;99.90;;;;;;5065913;28;20104;-91
2021/05/23 03:57:56;;;;;;;11.60;8.75;;;9.80;99.90;;;;;;5064455;28;20086;-90
2021/05/23 04:00:27;;;;;;;11.27;8.45;;;9.80;99.90;;;;;;5040387;28;20033;-90
2021/05/23 04:02:56;;;;;;;12.47;8.00;;;9.80;99.90;;;;;;5053183;28;20040;-90
2021/05/23 04:05:26;;;;;;;11.18;8.07;;;9.80;99.90;;;;;;5061078;28;20355;-91
2021/05/23 04:07:55;;;;;;;10.40;7.78;;;9.80;99.90;;;;;;5055800;28;20049;-91
2021/05/23 04:10:28;;;;;;;10.48;7.95;;;9.80;99.90;;;;;;5058081;28;20025;-90
2021/05/23 04:12:58;;;;;;;12.98;9.20;;;9.90;99.90;;;;;;5056418;28;20021;-91
2021/05/23 04:15:26;;;;;;;12.50;9.32;;;9.80;99.90;;;;;;5050847;28;20086;-89
2021/05/23 04:17:51;;;;;;;12.63;9.55;;;9.90;99.90;;;;;;5051693;28;20025;-90
2021/05/23 04:20:19;;;;;;;14.30;10.60;;;9.80;99.90;;;;;;5044081;28;20178;-90
2021/05/23 04:22:50;;;;;;;13.18;10.15;;;9.80;99.90;;;;;;5072280;28;20020;-91
2021/05/23 04:25:19;;;;;;;15.68;12.23;;;9.90;99.90;;;;;;5064108;28;20037;-91
2021/05/23 04:27:49;;;;;;;16.38;12.00;;;9.80;99.90;;;;;;5066285;28;20033;-91
2021/05/23 04:30:20;;;;;;;15.73;11.73;;;9.90;99.90;;;;;;5054685;28;20027;-91
2021/05/23 04:32:46;;;;;;;18.40;12.95;;;9.90;99.90;;;;;;5059047;28;20393;-91
2021/05/23 04:35:14;;;;;;;17.00;12.63;;;9.90;99.90;;;;;;5070169;28;20025;-91
2021/05/23 04:37:40;;;;;;;18.17;13.80;;;9.90;99.90;;;;;;5066097;28;20021;-91
2021/05/23 04:40:07;;;;;;;19.35;14.10;;;9.90;99.90;;;;;;5039279;28;20033;-91
2021/05/23 04:42:33;;;;;;;20.20;14.68;;;10.00;99.90;;;;;;5072083;28;20029;-92
2021/05/23 04:45:00;;;;;;;23.48;17.00;;;10.00;99.90;;;;;;5055893;28;20174;-91
2021/05/23 04:47:30;;;;;;;22.20;15.63;;;10.10;99.90;;;;;;5063902;28;20115;-91
2021/05/23 04:49:56;;;;;;;28.08;18.65;;;10.10;99.90;;;;;;5064578;28;20028;-92
2021/05/23 04:52:25;;;;;;;26.38;18.38;;;10.10;99.90;;;;;;5055140;28;20032;-92
2021/05/23 04:54:52;;;;;;;26.23;17.80;;;10.20;99.90;;;;;;5059652;28;20392;-91
2021/05/23 04:57:20;;;;;;;24.55;18.08;;;10.20;99.90;;;;;;5053180;28;20025;-91
2021/05/23 04:59:50;;;;;;;25.98;19.23;;;10.20;99.90;;;;;;5066263;28;20025;-91
2021/05/23 05:02:17;;;;;;;25.50;18.35;;;10.20;99.90;;;;;;5044781;28;20044;-91
2021/05/23 05:04:45;;;;;;;27.50;20.48;;;10.30;99.90;;;;;;5072221;28;20457;-90
2021/05/23 05:07:11;;;;;;;30.05;20.83;;;10.40;99.90;;;;;;5045548;28;20100;-91
2021/05/23 05:09:40;;;;;;;28.10;21.00;;;10.50;99.90;;;;;;5065778;28;20045;-91
2021/05/23 05:12:10;;;;;;;33.50;24.25;;;10.60;99.90;;;;;;5054551;28;20040;-90
2021/05/23 05:14:40;;;;;;;35.67;25.40;;;10.60;99.90;;;;;;5060071;28;20043;-91
2021/05/23 05:17:09;;;;;;;35.65;25.10;;;10.60;99.90;;;;;;5039081;28;20021;-91
2021/05/23 05:19:36;;;;;;;37.55;25.02;;;10.60;99.90;;;;;;5047853;28;20067;-91
2021/05/23 05:22:02;;;;;;;45.75;30.77;;;10.60;99.90;;;;;;5045975;28;20043;-90
2021/05/23 05:24:29;;;;;;;44.78;31.70;;;10.60;99.90;;;;;;5071544;28;20032;-91
2021/05/23 05:26:57;;;;;;;42.55;29.45;;;10.60;99.90;;;;;;5057801;28;20124;-91
2021/05/23 05:29:23;;;;;;;34.88;25.70;;;10.60;99.90;;;;;;5051148;28;20075;-92
2021/05/23 05:31:50;;;;;;;41.55;29.23;;;10.60;99.90;;;;;;5066679;28;20055;-91
2021/05/23 05:34:17;;;;;;;38.42;26.88;;;10.60;99.90;;;;;;5059898;28;20029;-92
2021/05/23 05:36:44;;;;;;;35.38;25.60;;;10.60;99.90;;;;;;5071708;28;20127;-91
2021/05/23 05:39:11;;;;;;;38.10;27.90;;;10.60;99.90;;;;;;5061152;28;20108;-91
2021/05/23 05:41:37;;;;;;;45.40;33.15;;;10.60;99.90;;;;;;5064787;28;20032;-91
2021/05/23 05:44:05;;;;;;;50.10;33.85;;;10.60;99.90;;;;;;5067902;28;20025;-91
2021/05/23 05:46:33;;;;;;;43.13;32.17;;;10.70;99.90;;;;;;5041630;28;20033;-92
2021/05/23 05:49:00;;;;;;;41.63;31.67;;;10.80;99.90;;;;;;5037479;28;20040;-92
2021/05/23 05:51:27;;;;;;;35.42;27.52;;;10.80;99.90;;;;;;5046078;28;20373;-91
2021/05/23 05:53:57;;;;;;;41.17;29.67;;;10.80;99.90;;;;;;5062541;28;20070;-92
2021/05/23 05:56:27;;;;;;;34.55;26.85;;;10.80;99.90;;;;;;5053774;28;20073;-90
2021/05/23 05:58:57;;;;;;;40.72;29.20;;;10.90;99.90;;;;;;5058605;28;20043;-92
2021/05/23 06:01:27;;;;;;;42.70;30.42;;;11.00;99.90;;;;;;5066925;28;20036;-92
2021/05/23 06:03:54;;;;;;;44.83;33.58;;;11.00;99.90;;;;;;5049795;28;20044;-92
2021/05/23 06:06:21;;;;;;;42.08;32.55;;;11.00;99.90;;;;;;5041425;28;20041;-92
2021/05/23 06:08:47;;;;;;;46.05;35.20;;;11.00;99.90;;;;;;5037147;28;20057;-92
2021/05/23 06:11:18;;;;;;;45.20;34.97;;;11.00;99.90;;;;;;5060628;28;20032;-92
2021/05/23 06:13:44;;;;;;;45.63;34.50;;;11.00;99.90;;;;;;5063576;28;20051;-91
2021/05/23 06:16:14;;;;;;;39.28;31.80;;;11.00;99.90;;;;;;5068419;28;20028;-92
2021/05/23 06:18:41;;;;;;;44.10;34.40;;;11.00;99.90;;;;;;5057536;28;20056;-91
2021/05/23 06:21:10;;;;;;;45.65;34.22;;;11.00;99.90;;;;;;5067149;28;20033;-92
2021/05/23 06:23:36;;;;;;;40.65;31.05;;;11.00;99.90;;;;;;5030635;28;20025;-91
2021/05/23 06:26:02;;;;;;;42.50;31.52;;;11.00;99.90;;;;;;5060780;28;20036;-90
2021/05/23 06:28:27;;;;;;;39.40;29.80;;;10.90;99.90;;;;;;5053724;28;20033;-92
2021/05/23 06:30:53;;;;;;;38.92;28.30;;;10.80;99.90;;;;;;5055292;28;20024;-92
2021/05/23 06:33:20;;;;;;;36.40;26.48;;;10.80;99.90;;;;;;5044558;28;20028;-92
2021/05/23 06:35:46;;;;;;;31.75;24.98;;;10.70;99.90;;;;;;5046310;28;20119;-91
2021/05/23 06:38:20;;;;;;;29.92;24.08;;;10.70;99.90;;;;;;5051064;28;20149;-93
2021/05/23 06:40:47;;;;;;;33.40;22.23;;;10.70;99.90;;;;;;5040111;28;20190;-91
2021/05/23 06:43:13;;;;;;;28.92;21.15;;;10.70;99.90;;;;;;5067530;28;20603;-90
2021/05/23 06:45:41;;;;;;;32.85;22.00;;;10.70;99.90;;;;;;5065122;28;20029;-90
2021/05/23 06:48:09;;;;;;;26.73;21.63;;;10.70;99.90;;;;;;5059312;28;20037;-92
2021/05/23 06:50:37;;;;;;;24.92;19.10;;;10.70;99.90;;;;;;5069306;28;20032;-91
2021/05/23 06:53:07;;;;;;;22.70;17.92;;;10.70;99.90;;;;;;5058594;28;20049;-90
2021/05/23 06:55:33;;;;;;;27.17;18.85;;;10.70;99.90;;;;;;5063954;28;20538;-90
2021/05/23 06:58:01;;;;;;;26.85;17.67;;;10.70;99.90;;;;;;5065497;28;20025;-92
2021/05/23 07:00:28;;;;;;;22.83;17.48;;;10.70;99.90;;;;;;5056373;28;20433;-91
2021/05/23 07:02:55;;;;;;;19.83;15.43;;;10.70;99.90;;;;;;5053243;28;20116;-90
2021/05/23 07:05:24;;;;;;;21.92;15.43;;;10.70;99.90;;;;;;5060814;28;20041;-90
2021/05/23 07:07:53;;;;;;;20.85;15.73;;;10.70;99.90;;;;;;5053618;28;20136;-90
2021/05/23 07:10:19;;;;;;;29.17;16.95;;;10.70;99.90;;;;;;5040109;28;20071;-90
2021/05/23 07:12:44;;;;;;;24.73;15.13;;;10.70;99.90;;;;;;5036273;28;20045;-90
2021/05/23 07:15:10;;;;;;;24.23;16.45;;;10.70;99.90;;;;;;5036567;28;20040;-91
2021/05/23 07:17:36;;;;;;;25.45;15.30;;;10.60;99.90;;;;;;5061979;28;20028;-90
2021/05/23 07:20:04;;;;;;;17.08;13.30;;;10.70;99.90;;;;;;5059515;28;20492;-90
2021/05/23 07:22:30;;;;;;;17.08;13.57;;;10.70;99.90;;;;;;5070901;28;20016;-91
2021/05/23 07:24:56;;;;;;;22.92;14.90;;;10.70;99.90;;;;;;5057236;28;20021;-92
2021/05/23 07:27:26;;;;;;;18.98;12.65;;;10.80;99.90;;;;;;5065443;28;20070;-91
2021/05/23 07:29:53;;;;;;;21.00;13.98;;;10.80;99.90;;;;;;5048130;28;20029;-91
2021/05/23 07:32:19;;;;;;;21.42;14.80;;;10.80;99.90;;;;;;5056590;28;20040;-90
2021/05/23 07:34:45;;;;;;;19.85;14.25;;;10.90;99.90;;;;;;5052635;28;20033;-88
2021/05/23 07:37:11;;;;;;;20.42;13.68;;;10.90;99.90;;;;;;5058482;28;20036;-89
2021/05/23 07:39:36;;;;;;;24.10;14.65;;;10.90;99.90;;;;;;5062881;28;20033;-93
2021/05/23 07:42:02;;;;;;;18.73;12.75;;;11.00;99.90;;;;;;5049292;28;20067;-90
2021/05/23 07:44:28;;;;;;;16.05;12.05;;;11.00;99.90;;;;;;5052857;28;20094;-90
2021/05/23 07:46:58;;;;;;;18.95;12.48;;;11.00;99.90;;;;;;5038020;28;20143;-91
2021/05/23 07:49:24;;;;;;;18.88;13.57;;;11.10;99.90;;;;;;5064232;28;20044;-89
2021/05/23 07:51:50;;;;;;;16.55;11.35;;;11.10;99.90;;;;;;5067433;28;20028;-89
2021/05/23 07:54:16;;;;;;;17.67;10.80;;;11.10;99.90;;;;;;5043109;28;20029;-89
2021/05/23 07:56:42;;;;;;;16.52;10.52;;;11.10;99.90;;;;;;5071168;28;20115;-90
2021/05/23 07:59:07;;;;;;;13.90;9.63;;;11.00;99.90;;;;;;5060331;28;20547;-89
2021/05/23 08:01:34;;;;;;;15.48;8.43;;;11.00;99.90;;;;;;5065548;28;20029;-91
2021/05/23 08:04:02;;;;;;;14.32;8.68;;;11.00;99.90;;;;;;5051123;28;20029;-91
2021/05/23 08:06:31;;;;;;;16.85;9.07;;;11.00;99.90;;;;;;5042675;28;20123;-90
2021/05/23 08:08:57;;;;;;;13.45;9.10;;;11.10;99.90;;;;;;5065732;28;20053;-91
2021/05/23 08:11:23;;;;;;;12.63;8.63;;;11.10;99.90;;;;;;5065875;28;20025;-91
2021/05/23 08:13:50;;;;;;;12.90;8.27;;;11.20;99.90;;;;;;5065943;28;20025;-91
2021/05/23 08:16:17;;;;;;;13.02;8.35;;;11.20;99.90;;;;;;5066161;28;20033;-90
2021/05/23 08:18:43;;;;;;;13.93;8.60;;;11.20;99.90;;;;;;5048452;28;20473;-91
2021/05/23 08:21:13;;;;;;;11.38;8.52;;;11.10;99.90;;;;;;5050644;28;20025;-91
2021/05/23 08:23:42;;;;;;;15.85;8.73;;;11.10;99.90;;;;;;5044737;28;20032;-91
2021/05/23 08:26:07;;;;;;;12.60;10.23;;;11.10;99.90;;;;;;5045552;28;20076;-89
2021/05/23 08:28:34;;;;;;;13.48;10.38;;;11.20;99.90;;;;;;5065292;28;20059;-91
2021/05/23 08:31:02;;;;;;;20.35;11.82;;;11.40;99.90;;;;;;5048796;28;20021;-91
2021/05/23 08:33:30;;;;;;;15.93;11.80;;;11.80;99.90;;;;;;5066326;28;20024;-91
2021/05/23 08:35:59;;;;;;;13.32;11.07;;;12.00;99.90;;;;;;5067341;28;20020;-89
2021/05/23 08:38:27;;;;;;;16.38;10.65;;;12.10;99.90;;;;;;5071309;28;20029;-89
2021/05/23 08:40:53;;;;;;;13.13;8.95;;;12.10;99.90;;;;;;5070601;28;20017;-91
2021/05/23 08:43:20;;;;;;;14.48;8.90;;;12.10;99.90;;;;;;5048503;28;20037;-90
2021/05/23 08:45:49;;;;;;;11.07;7.63;;;12.20;99.90;;;;;;5071507;28;20127;-91
2021/05/23 08:48:18;;;;;;;11.95;6.82;;;12.30;99.90;;;;;;5075762;28;20021;-91
2021/05/23 08:50:49;;;;;;;17.80;7.57;;;12.50;99.90;;;;;;5074726;28;20036;-91
2021/05/23 08:53:14;;;;;;;13.85;6.60;;;12.60;99.90;;;;;;5069264;28;20017;-91
2021/05/23 08:55:42;;;;;;;10.90;6.32;;;12.60;99.90;;;;;;5071045;28;20396;-91
2021/05/23 08:58:09;;;;;;;10.20;6.00;;;12.50;99.90;;;;;;5067529;28;20017;-91
2021/05/23 09:00:36;;;;;;;12.20;5.95;;;12.40;99.90;;;;;;5056584;28;20485;-88
2021/05/23 09:03:08;;;;;;;8.93;4.53;;;12.40;99.90;;;;;;5052034;28;20087;-90
2021/05/23 09:06:04;;;;;;;9.15;4.15;;;12.40;99.90;;;;;;5046227;28;20043;-88
2021/05/23 09:08:31;;;;;;;14.80;5.25;;;12.40;99.90;;;;;;5035504;28;20128;-92
2021/05/23 09:11:04;;;;;;;11.48;3.97;;;12.40;99.90;;;;;;5045787;28;20052;-91
2021/05/23 09:13:36;;;;;;;12.90;3.70;;;12.40;99.90;;;;;;5054602;28;20029;-90
2021/05/23 09:16:14;;;;;;;7.15;3.65;;;12.40;99.90;;;;;;5059979;28;20037;-90
2021/05/23 09:18:44;;;;;;;8.73;3.17;;;12.30;99.90;;;;;;5050252;28;20123;-89
2021/05/23 09:21:15;;;;;;;9.25;3.42;;;12.40;99.90;;;;;;5061866;28;20044;-92
2021/05/23 09:23:55;;;;;;;7.30;2.90;;;12.60;99.90;;;;;;5060193;28;20036;-89
2021/05/23 09:26:28;;;;;;;6.50;1.85;;;12.80;99.90;;;;;;5055316;28;20033;-92
2021/05/23 09:28:55;;;;;;;7.20;1.70;;;12.90;99.90;;;;;;5069289;28;20029;-88
2021/05/23 09:31:23;;;;;;;4.70;1.40;;;12.90;99.90;;;;;;5058875;28;20043;-91
2021/05/23 09:33:53;;;;;;;4.00;1.40;;;13.30;99.90;;;;;;5070451;28;20047;-88
2021/05/23 09:36:21;;;;;;;4.85;1.20;;;13.50;99.90;;;;;;5063550;28;20032;-90
2021/05/23 09:38:55;;;;;;;7.75;1.17;;;13.60;99.90;;;;;;5058253;28;20063;-88
2021/05/23 09:41:32;;;;;;;2.88;1.00;;;13.70;99.90;;;;;;5067533;28;20027;-91
2021/05/23 09:44:11;;;;;;;6.30;1.55;;;13.60;99.70;;;;;;5067930;28;20017;-91
2021/05/23 09:46:48;;;;;;;3.15;1.20;;;13.80;99.60;;;;;;5056150;28;20036;-89
2021/05/23 09:49:16;;;;;;;3.67;1.02;;;14.50;98.80;;;;;;5054405;28;20028;-90
2021/05/23 09:51:50;;;;;;;3.75;1.05;;;15.40;97.00;;;;;;5054882;28;20433;-89
2021/05/23 09:54:16;;;;;;;3.97;1.20;;;16.10;97.40;;;;;;5067228;28;20111;-88
2021/05/23 09:56:45;;;;;;;7.00;1.80;;;16.90;97.10;;;;;;5055686;28;20121;-89
2021/05/23 09:59:34;;;;;;;3.47;1.10;;;17.20;94.80;;;;;;5072183;28;20035;-88
2021/05/23 10:02:07;;;;;;;5.90;1.40;;;17.50;94.90;;;;;;5044324;28;20473;-88
2021/05/23 10:04:34;;;;;;;3.63;1.10;;;17.80;93.80;;;;;;5069213;28;20071;-88
2021/05/23 10:07:07;;;;;;;4.75;1.25;;;17.50;93.30;;;;;;5057265;28;20074;-87
2021/05/23 10:09:33;;;;;;;3.77;1.33;;;17.10;93.70;;;;;;5063360;28;20053;-88
2021/05/23 10:12:03;;;;;;;4.13;1.35;;;17.40;94.50;;;;;;5064655;28;20499;-89
2021/05/23 10:14:36;;;;;;;5.50;1.80;;;17.60;93.00;;;;;;5055697;28;20036;-87
2021/05/23 10:17:09;;;;;;;3.63;1.67;;;17.30;93.30;;;;;;5067692;28;20115;-88
2021/05/23 10:19:36;;;;;;;5.05;1.67;;;17.10;94.40;;;;;;5062891;28;20031;-88
2021/05/23 10:22:05;;;;;;;5.13;1.80;;;17.00;94.80;;;;;;5060254;28;20041;-88
2021/05/23 10:24:57;;;;;;;4.50;1.65;;;16.80;94.60;;;;;;5070080;28;20082;-86
2021/05/23 10:27:25;;;;;;;6.43;2.30;;;17.10;95.70;;;;;;5061859;28;20028;-90
2021/05/23 10:29:56;;;;;;;5.28;1.98;;;17.50;94.80;;;;;;5073953;28;20024;-87
2021/05/23 10:32:33;;;;;;;7.05;2.33;;;17.30;94.60;;;;;;5057681;28;20021;-88
2021/05/23 10:35:19;;;;;;;7.03;2.90;;;17.30;94.90;;;;;;5053719;28;20052;-88
2021/05/23 10:38:08;;;;;;;5.60;2.00;;;16.70;95.20;;;;;;5053979;28;20481;-88
2021/05/23 10:40:50;;;;;;;6.90;2.35;;;15.80;95.70;;;;;;5069992;28;20506;-89
2021/05/23 10:43:47;;;;;;;5.05;2.08;;;15.30;97.00;;;;;;5060770;28;20027;-88
2021/05/23 10:46:14;;;;;;;5.28;1.92;;;15.10;97.40;;;;;;5058112;28;20123;-88
2021/05/23 10:49:01;;;;;;;8.18;2.03;;;15.10;97.50;;;;;;5069301;28;20108;-87
2021/05/23 10:51:28;;;;;;;9.63;2.47;;;15.30;97.70;;;;;;5061901;28;20055;-89
2021/05/23 10:53:55;;;;;;;9.55;2.90;;;15.30;96.70;;;;;;5073577;28;20024;-89
2021/05/23 10:56:31;;;;;;;4.68;1.67;;;15.30;96.60;;;;;;5057660;28;20547;-88
2021/05/23 10:59:00;;;;;;;6.35;1.73;;;15.30;96.10;;;;;;5053534;28;20028;-89
2021/05/23 11:01:47;;;;;;;6.40;1.80;;;15.20;96.30;;;;;;5061451;28;20020;-88
2021/05/23 11:04:18;;;;;;;6.30;2.17;;;15.10;96.90;;;;;;5058697;28;20428;-89
2021/05/23 11:06:49;;;;;;;9.10;2.30;;;15.10;96.40;;;;;;5072144;28;20086;-89
2021/05/23 11:09:23;;;;;;;11.48;2.63;;;14.90;95.20;;;;;;5069546;28;20053;-89
2021/05/23 11:11:48;;;;;;;8.45;2.00;;;14.90;96.30;;;;;;5064489;28;20031;-89
2021/05/23 11:14:33;;;;;;;6.72;1.70;;;15.00;96.30;;;;;;5058458;28;20107;-92
2021/05/23 11:17:06;;;;;;;5.32;2.08;;;15.00;95.50;;;;;;5058610;28;20131;-89
2021/05/23 11:19:32;;;;;;;;;;;15.00;94.40;;;;;;5065301;28;20021;-89
2021/05/23 11:21:59;;;;;;;6.55;1.50;;;15.10;93.50;;;;;;5049428;28;20015;-90
2021/05/23 11:24:33;;;;;;;5.05;1.50;;;15.30;94.30;;;;;;5056330;28;20036;-89
2021/05/23 11:27:24;;;;;;;5.65;1.50;;;15.70;94.40;;;;;;5054813;28;20037;-88
2021/05/23 11:29:53;;;;;;;4.22;1.23;;;16.20;93.80;;;;;;5064682;28;20115;-91
2021/05/23 11:32:19;;;;;;;5.10;1.50;;;16.90;92.20;;;;;;5056506;28;20468;-89
2021/05/23 11:34:45;;;;;;;6.55;1.88;;;17.10;91.50;;;;;;5055776;28;20025;-89
2021/05/23 11:37:12;;;;;;;5.88;2.00;;;17.00;90.90;;;;;;5068156;28;20037;-89
2021/05/23 11:39:38;;;;;;;4.38;1.60;;;16.80;91.40;;;;;;5062138;28;20031;-89
2021/05/23 11:42:05;;;;;;;4.72;1.45;;;17.00;92.50;;;;;;5074011;28;20104;-90
2021/05/23 11:44:43;;;;;;;4.43;1.50;;;17.70;92.70;;;;;;5056240;28;20032;-90
2021/05/23 11:47:10;;;;;;;4.13;1.40;;;17.90;91.70;;;;;;5067567;28;20033;-90
2021/05/23 11:49:44;;;;;;;4.45;1.25;;;17.70;92.10;;;;;;5062467;28;20020;-90
2021/05/23 11:52:10;;;;;;;5.80;1.45;;;17.40;92.30;;;;;;5059438;28;20036;-91
2021/05/23 11:54:38;;;;;;;4.10;1.20;;;17.30;92.70;;;;;;5069672;28;20025;-91
2021/05/23 11:57:04;;;;;;;4.47;1.00;;;17.60;91.30;;;;;;5053190;28;20048;-92
2021/05/23 11:59:31;;;;;;;5.22;1.20;;;18.40;90.20;;;;;;5061422;28;20024;-90
2021/05/23 12:01:59;;;;;;;3.60;1.30;;;18.80;88.20;;;;;;5060393;28;20025;-90
2021/05/23 12:04:27;;;;;;;4.65;1.40;;;19.10;83.90;;;;;;5065004;28;20031;-91
2021/05/23 12:06:56;;;;;;;3.35;1.38;;;19.50;86.40;;;;;;5061564;28;20086;-91
2021/05/23 12:09:29;;;;;;;4.10;1.20;;;19.80;84.10;;;;;;5063647;28;20120;-92
2021/05/23 12:11:59;;;;;;;5.13;0.98;;;19.50;86.30;;;;;;5066362;28;20036;-90
2021/05/23 12:14:37;;;;;;;4.18;1.50;;;19.40;86.70;;;;;;5065456;28;20064;-89
2021/05/23 12:17:14;;;;;;;3.55;1.40;;;19.00;85.00;;;;;;5067205;28;20377;-91
2021/05/23 12:19:47;;;;;;;2.90;1.02;;;18.40;84.80;;;;;;5062007;28;20066;-90
2021/05/23 12:22:13;;;;;;;3.67;1.30;;;17.70;87.80;;;;;;5058591;28;20530;-90
2021/05/23 12:24:40;;;;;;;5.30;1.50;;;17.40;89.80;;;;;;5055724;28;20021;-89
2021/05/23 12:27:06;;;;;;;5.80;1.70;;;17.00;86.50;;;;;;5066842;28;20128;-88
2021/05/23 12:29:34;;;;;;;4.43;1.33;;;17.30;87.80;;;;;;5061301;28;20028;-89
2021/05/23 12:32:07;;;;;;;5.05;1.58;;;17.80;88.50;;;;;;5059516;28;20031;-88
2021/05/23 12:34:32;;;;;;;2.13;0.93;;;18.20;84.90;;;;;;5068394;28;20418;-89
2021/05/23 12:37:04;;;;;;;5.32;1.50;;;18.30;85.60;;;;;;5058846;28;20044;-90
2021/05/23 12:39:34;;;;;;;3.83;1.38;;;18.30;84.10;;;;;;5067455;28;20029;-89
2021/05/23 12:42:03;;;;;;;3.90;1.35;;;18.20;84.00;;;;;;5067470;28;20024;-87
2021/05/23 12:44:30;;;;;;;4.05;1.15;;;18.00;85.30;;;;;;5063250;28;20038;-89
2021/05/23 12:47:08;;;;;;;3.92;0.90;;;18.00;83.20;;;;;;5061821;28;20077;-89
2021/05/23 12:49:44;;;;;;;3.60;0.90;;;18.00;83.70;;;;;;5057806;28;20028;-89
2021/05/23 12:52:13;;;;;;;7.93;1.30;;;17.80;85.40;;;;;;5068781;28;20020;-88